Time;durP1;ratioP1;P1;durP2;ratioP2;P2;SDS_P1;SDS_P2;PMS_P1;PMS_P2;Temp;Humidity;BMP_temperature;BMP_pressure;BME280_temperature;BME280_humidity;BME280_pressure;Samples;Min_cycle;Max_cycle;Signal;HPM_P1;HPM_P2
2022/10/17 00:00:29;;;;;;;1.10;1.00;;;20.10;51.00;;;;;;5133835;28;20551;-9
2022/10/17 00:02:56;;;;;;;1.10;0.98;;;20.10;51.00;;;;;;5133742;28;20141;-9
2022/10/17 00:05:22;;;;;;;1.10;0.95;;;20.10;50.90;;;;;;5133642;28;20059;-9
2022/10/17 00:07:47;;;;;;;1.13;1.02;;;20.10;51.00;;;;;;5133915;28;20070;-9
2022/10/17 00:10:13;;;;;;;1.38;1.00;;;20.10;51.10;;;;;;5133543;28;20047;-9
2022/10/17 00:12:38;;;;;;;0.93;0.93;;;20.10;51.10;;;;;;5133633;28;20051;-9
2022/10/17 00:15:05;;;;;;;1.48;1.23;;;20.10;51.00;;;;;;5133803;28;20062;-9
2022/10/17 00:17:31;;;;;;;1.23;1.02;;;20.10;51.00;;;;;;5133590;28;20096;-9
2022/10/17 00:19:59;;;;;;;1.10;1.00;;;20.10;51.00;;;;;;5133771;28;20047;-9
2022/10/17 00:22:27;;;;;;;1.00;0.90;;;20.10;51.00;;;;;;5133452;28;20059;-9
2022/10/17 00:24:52;;;;;;;0.93;0.80;;;20.10;51.00;;;;;;5133475;28;20065;-9
2022/10/17 00:27:18;;;;;;;0.95;0.90;;;20.10;51.00;;;;;;5133192;28;20051;-9
2022/10/17 00:29:48;;;;;;;1.02;0.93;;;20.10;51.10;;;;;;5133246;28;20514;-9
2022/10/17 00:32:14;;;;;;;1.27;1.17;;;20.10;51.10;;;;;;5133482;28;20055;-9
2022/10/17 00:34:40;;;;;;;0.98;0.93;;;20.10;51.10;;;;;;5114787;28;20047;-9
2022/10/17 00:37:05;;;;;;;1.00;0.90;;;20.10;51.10;;;;;;5133025;28;20460;-9
2022/10/17 00:39:31;;;;;;;0.93;0.93;;;20.10;51.10;;;;;;5133565;28;20072;-9
2022/10/17 00:41:57;;;;;;;0.80;0.80;;;20.10;51.10;;;;;;5133202;28;20047;-9
2022/10/17 00:44:28;;;;;;;1.42;0.90;;;20.00;51.10;;;;;;5133219;28;20047;-9
2022/10/17 00:46:56;;;;;;;1.38;1.17;;;20.10;51.10;;;;;;5114603;28;20498;-10
2022/10/17 00:49:23;;;;;;;1.00;0.90;;;20.00;51.10;;;;;;5114670;28;20051;-9
2022/10/17 00:51:53;;;;;;;1.13;1.00;;;20.00;51.10;;;;;;5133686;28;20047;-9
2022/10/17 00:54:23;;;;;;;1.10;1.00;;;20.10;51.10;;;;;;5133067;28;20044;-9
2022/10/17 00:56:49;;;;;;;1.23;0.80;;;20.10;51.10;;;;;;5132951;28;20051;-9
2022/10/17 00:59:17;;;;;;;1.00;0.90;;;20.10;51.10;;;;;;5133033;27;20062;-9
2022/10/17 01:02:08;;;;;;;1.00;0.90;;;20.10;51.10;;;;;;5136020;28;20059;-9
2022/10/17 01:04:36;;;;;;;1.52;1.23;;;20.00;51.00;;;;;;5135451;28;20514;-9
2022/10/17 01:07:02;;;;;;;1.23;1.10;;;20.00;51.10;;;;;;5136187;28;20504;-10
2022/10/17 01:09:27;;;;;;;1.15;0.95;;;20.00;51.20;;;;;;5136325;28;20115;-9
2022/10/17 01:12:15;;;;;;;0.88;0.80;;;20.00;51.20;;;;;;5136379;28;20061;-9
2022/10/17 01:15:05;;;;;;;2.10;1.00;;;20.00;51.20;;;;;;5136703;28;20255;-9
2022/10/17 01:18:09;;;;;;;1.05;0.77;;;20.00;51.10;;;;;;5136342;28;20043;-10
2022/10/17 01:21:01;;;;;;;1.10;1.00;;;20.10;51.10;;;;;;5052760;28;20080;-9
2022/10/17 01:24:12;;;;;;;1.55;1.13;;;20.10;51.00;;;;;;5135989;28;20055;-9
2022/10/17 01:27:12;;;;;;;1.08;0.95;;;20.10;51.10;;;;;;5117715;28;20517;-9
2022/10/17 01:29:56;;;;;;;0.95;0.90;;;20.00;51.10;;;;;;5135976;28;20042;-9
2022/10/17 01:32:39;;;;;;;0.80;0.80;;;20.00;51.20;;;;;;5136301;28;20411;-9
2022/10/17 01:35:16;;;;;;;0.90;0.90;;;20.00;51.20;;;;;;5117948;28;20123;-9
2022/10/17 01:37:47;;;;;;;1.25;1.15;;;19.90;51.20;;;;;;5117480;28;20051;-9
2022/10/17 01:40:24;;;;;;;1.20;1.10;;;20.00;51.30;;;;;;5115791;28;20105;-9
2022/10/17 01:43:22;;;;;;;1.20;1.10;;;20.00;51.30;;;;;;5117409;28;20058;-10
2022/10/17 01:45:59;;;;;;;1.10;1.00;;;20.00;51.30;;;;;;5118002;28;20061;-9
2022/10/17 01:48:33;;;;;;;1.08;0.98;;;20.00;51.20;;;;;;5117618;28;20055;-9
2022/10/17 01:51:39;;;;;;;1.30;1.10;;;20.00;51.20;;;;;;5117355;28;20047;-9
2022/10/17 01:54:17;;;;;;;1.10;1.00;;;20.00;51.10;;;;;;5124343;28;20082;-9
2022/10/17 01:56:44;;;;;;;1.10;1.00;;;20.00;51.20;;;;;;5135417;28;20059;-10
2022/10/17 01:59:16;;;;;;;1.52;1.10;;;20.00;51.20;;;;;;5135703;28;20055;-9
2022/10/17 02:01:45;;;;;;;1.17;0.90;;;20.00;51.20;;;;;;5117754;28;20051;-9
2022/10/17 02:04:11;;;;;;;0.75;0.75;;;20.00;51.10;;;;;;5135880;28;20142;-9
2022/10/17 02:06:37;;;;;;;1.40;1.13;;;20.00;51.10;;;;;;5135296;28;20539;-10
2022/10/17 02:09:37;;;;;;;0.83;0.77;;;20.00;51.70;;;;;;5116898;28;20047;-9
2022/10/17 02:12:08;;;;;;;1.60;1.10;;;20.00;51.20;;;;;;5103433;28;20452;-9
2022/10/17 02:14:53;;;;;;;1.10;1.00;;;20.00;51.20;;;;;;5117034;28;20141;-9
2022/10/17 02:17:44;;;;;;;0.95;0.75;;;20.00;51.10;;;;;;5114884;28;20433;-10
2022/10/17 02:20:22;;;;;;;0.90;0.90;;;20.00;51.00;;;;;;5115793;28;20146;-9
2022/10/17 02:23:01;;;;;;;1.20;1.02;;;20.00;51.20;;;;;;5117354;28;20475;-9
2022/10/17 02:25:54;;;;;;;0.80;0.80;;;19.90;51.20;;;;;;5135343;28;20533;-9
2022/10/17 02:28:29;;;;;;;1.13;0.95;;;19.90;51.40;;;;;;5116482;28;20578;-10
2022/10/17 02:31:05;;;;;;;0.90;0.90;;;20.00;51.40;;;;;;5116534;28;20093;-9
2022/10/17 02:34:01;;;;;;;0.98;0.90;;;19.90;51.20;;;;;;5116678;28;20078;-9
2022/10/17 02:36:37;;;;;;;1.20;1.10;;;20.00;51.20;;;;;;5116448;28;20398;-10
2022/10/17 02:39:06;;;;;;;1.10;0.90;;;20.00;51.70;;;;;;5116433;28;20047;-9
2022/10/17 02:41:33;;;;;;;1.27;0.90;;;20.00;51.20;;;;;;5116972;28;20119;-9
2022/10/17 02:44:02;;;;;;;0.73;0.73;;;20.00;51.20;;;;;;5135409;28;20553;-9
2022/10/17 02:46:29;;;;;;;1.00;0.90;;;19.90;51.10;;;;;;5115392;28;20047;-9
2022/10/17 02:49:02;;;;;;;1.20;0.90;;;20.00;51.20;;;;;;5115015;28;20054;-9
2022/10/17 02:51:31;;;;;;;1.00;0.90;;;20.00;51.30;;;;;;5116832;28;20137;-9
2022/10/17 02:54:19;;;;;;;0.95;0.90;;;20.00;51.20;;;;;;5134708;28;20134;-9
2022/10/17 02:56:52;;;;;;;1.10;1.00;;;20.00;51.10;;;;;;5115425;28;20500;-10
2022/10/17 02:59:21;;;;;;;0.88;0.88;;;20.00;51.10;;;;;;5134618;28;20051;-9
2022/10/17 03:01:50;;;;;;;0.93;0.90;;;20.00;51.10;;;;;;5115669;28;20111;-9
2022/10/17 03:04:17;;;;;;;1.17;0.95;;;20.00;51.10;;;;;;5134667;28;20059;-9
2022/10/17 03:06:45;;;;;;;0.95;0.80;;;20.00;51.00;;;;;;5114743;28;20059;-10
2022/10/17 03:09:10;;;;;;;0.82;0.82;;;20.00;51.10;;;;;;5114896;28;20081;-9
2022/10/17 03:11:36;;;;;;;1.17;1.05;;;20.00;51.20;;;;;;5116564;28;20085;-9
2022/10/17 03:14:02;;;;;;;1.02;0.98;;;20.00;51.20;;;;;;5116266;28;20051;-9
2022/10/17 03:16:28;;;;;;;1.05;1.00;;;20.00;51.30;;;;;;5134366;28;20050;-10
2022/10/17 03:18:55;;;;;;;1.05;0.95;;;19.90;51.20;;;;;;5113908;28;20097;-9
2022/10/17 03:21:21;;;;;;;1.00;1.00;;;19.90;51.30;;;;;;5116462;28;20055;-9
2022/10/17 03:23:47;;;;;;;1.08;0.95;;;19.90;51.30;;;;;;5115341;28;20051;-10
2022/10/17 03:26:13;;;;;;;1.20;1.10;;;19.90;51.30;;;;;;5115823;28;20053;-9
2022/10/17 03:28:39;;;;;;;1.00;0.90;;;19.90;51.30;;;;;;5115544;28;20043;-9
2022/10/17 03:31:07;;;;;;;1.23;0.95;;;19.90;51.30;;;;;;5134132;28;20093;-9
2022/10/17 03:33:33;;;;;;;1.45;1.08;;;19.90;51.30;;;;;;5115666;28;20384;-9
2022/10/17 03:35:58;;;;;;;1.90;1.00;;;19.90;51.20;;;;;;5115584;28;20054;-9
2022/10/17 03:38:24;;;;;;;1.55;0.98;;;19.90;51.10;;;;;;5134034;28;20066;-9
2022/10/17 03:40:55;;;;;;;1.40;1.25;;;20.00;51.30;;;;;;5115392;28;20073;-9
2022/10/17 03:43:20;;;;;;;1.13;1.02;;;19.90;51.20;;;;;;5115740;28;20047;-9
2022/10/17 03:45:46;;;;;;;0.80;0.80;;;19.90;51.20;;;;;;5134066;28;20337;-9
2022/10/17 03:48:11;;;;;;;0.93;0.82;;;19.90;51.20;;;;;;5133878;28;20127;-9
2022/10/17 03:50:37;;;;;;;1.35;1.15;;;19.90;51.20;;;;;;5133769;28;20050;-9
2022/10/17 03:53:02;;;;;;;1.33;1.05;;;20.00;51.80;;;;;;5134478;28;20455;-9
2022/10/17 03:55:28;;;;;;;1.50;1.00;;;20.00;51.20;;;;;;5115455;28;20407;-9
2022/10/17 03:57:54;;;;;;;1.75;1.00;;;20.00;51.20;;;;;;5115300;28;20192;-9
2022/10/17 04:00:21;;;;;;;1.20;1.10;;;20.00;51.20;;;;;;5115199;28;20138;-9
2022/10/17 04:02:53;;;;;;;1.15;1.05;;;20.00;51.20;;;;;;5115778;28;20489;-9
2022/10/17 04:05:19;;;;;;;1.55;1.10;;;20.00;51.20;;;;;;5115265;28;20051;-9
2022/10/17 04:07:45;;;;;;;1.20;1.10;;;20.00;51.20;;;;;;5113256;28;20061;-10
2022/10/17 04:10:12;;;;;;;1.10;1.00;;;20.00;51.10;;;;;;5114646;28;20487;-9
2022/10/17 04:12:38;;;;;;;1.15;1.05;;;20.00;51.20;;;;;;5115677;28;20057;-9
2022/10/17 04:15:06;;;;;;;1.08;0.88;;;20.00;51.20;;;;;;5115375;28;20107;-9
2022/10/17 04:17:32;;;;;;;1.10;1.00;;;20.00;51.20;;;;;;5115133;28;20106;-9
2022/10/17 04:19:58;;;;;;;0.95;0.85;;;20.00;51.20;;;;;;5115224;28;20074;-9
2022/10/17 04:22:24;;;;;;;1.73;1.20;;;20.10;51.20;;;;;;5114958;28;20043;-12
2022/10/17 04:24:50;;;;;;;0.88;0.88;;;20.10;51.20;;;;;;5112916;28;20040;-9
2022/10/17 04:27:33;;;;;;;1.20;1.10;;;20.10;51.10;;;;;;5115467;28;20031;-12
2022/10/17 04:30:01;;;;;;;1.05;0.95;;;20.00;51.20;;;;;;5114679;28;20053;-11
2022/10/17 04:32:29;;;;;;;1.13;1.02;;;20.10;51.20;;;;;;5114919;28;20149;-11
2022/10/17 04:35:18;;;;;;;1.38;1.20;;;20.10;51.10;;;;;;5117241;28;20546;-11
2022/10/17 04:37:49;;;;;;;1.08;0.98;;;20.10;51.10;;;;;;5119090;28;20134;-12
2022/10/17 04:40:17;;;;;;;1.88;1.10;;;20.10;51.10;;;;;;5118700;28;20065;-11
2022/10/17 04:42:43;;;;;;;1.17;1.08;;;20.10;51.10;;;;;;5118422;28;20146;-11
2022/10/17 04:45:11;;;;;;;2.58;1.13;;;20.00;51.10;;;;;;5118369;28;20053;-11
2022/10/17 04:47:37;;;;;;;1.45;1.15;;;20.10;51.10;;;;;;5118881;28;20138;-11
2022/10/17 04:50:04;;;;;;;1.00;0.90;;;20.10;51.00;;;;;;5118173;28;20471;-11
2022/10/17 04:52:36;;;;;;;1.02;0.93;;;20.10;51.10;;;;;;5118229;28;20455;-11
2022/10/17 04:55:04;;;;;;;1.42;0.98;;;20.10;51.10;;;;;;5118638;28;20058;-11
2022/10/17 04:57:29;;;;;;;1.05;0.98;;;20.10;51.10;;;;;;5136579;28;20066;-11
2022/10/17 05:00:03;;;;;;;0.80;0.80;;;20.10;51.00;;;;;;5117989;28;20376;-12
2022/10/17 05:02:48;;;;;;;0.88;0.88;;;20.10;51.00;;;;;;5136722;28;20111;-11
2022/10/17 05:05:14;;;;;;;0.93;0.90;;;20.10;51.00;;;;;;5101493;28;20055;-11
2022/10/17 05:07:40;;;;;;;1.20;1.10;;;20.10;50.90;;;;;;5116441;28;20464;-12
2022/10/17 05:10:12;;;;;;;1.30;1.05;;;20.10;50.90;;;;;;5136224;28;20043;-11
2022/10/17 05:12:39;;;;;;;1.63;1.35;;;20.10;50.90;;;;;;5116707;28;20055;-11
2022/10/17 05:15:06;;;;;;;1.25;0.98;;;20.10;50.90;;;;;;5118050;28;20055;-11
2022/10/17 05:17:33;;;;;;;1.10;1.00;;;20.10;50.90;;;;;;5117941;28;20047;-12
2022/10/17 05:19:59;;;;;;;1.42;1.10;;;20.10;50.90;;;;;;5101295;28;20383;-11
2022/10/17 05:22:25;;;;;;;1.02;0.88;;;20.10;50.90;;;;;;5136855;28;20063;-11
2022/10/17 05:24:51;;;;;;;1.60;1.20;;;20.10;51.00;;;;;;5118121;28;20057;-11
2022/10/17 05:27:17;;;;;;;1.05;0.90;;;20.10;51.00;;;;;;5116789;28;20085;-11
2022/10/17 05:29:44;;;;;;;1.17;1.00;;;20.10;51.00;;;;;;5117460;28;20078;-11
2022/10/17 05:32:17;;;;;;;2.30;1.05;;;20.10;50.90;;;;;;5116952;28;20411;-11
2022/10/17 05:34:43;;;;;;;1.60;1.17;;;20.10;51.00;;;;;;5118181;28;20055;-11
2022/10/17 05:37:09;;;;;;;1.10;1.00;;;20.10;50.90;;;;;;5117383;28;20043;-11
2022/10/17 05:39:35;;;;;;;1.65;1.10;;;20.10;50.90;;;;;;5100379;28;20619;-11
2022/10/17 05:42:02;;;;;;;0.98;0.90;;;20.10;50.90;;;;;;5116127;28;20066;-11
2022/10/17 05:44:28;;;;;;;1.13;0.90;;;20.10;50.90;;;;;;5117254;28;20141;-11
2022/10/17 05:46:57;;;;;;;1.02;1.00;;;20.10;51.00;;;;;;5116339;28;20047;-11
2022/10/17 05:49:23;;;;;;;1.70;1.00;;;20.10;51.00;;;;;;5135552;28;20047;-11
2022/10/17 05:51:48;;;;;;;0.85;0.85;;;20.10;51.00;;;;;;5116016;28;20044;-11
2022/10/17 05:54:14;;;;;;;1.10;1.00;;;20.00;51.00;;;;;;5117162;28;20066;-11
2022/10/17 05:56:39;;;;;;;1.45;1.02;;;20.00;51.00;;;;;;5117328;28;20051;-11
2022/10/17 05:59:05;;;;;;;1.23;0.90;;;20.10;51.10;;;;;;5115801;28;20047;-11
2022/10/17 06:01:53;;;;;;;1.23;1.00;;;20.10;51.10;;;;;;5117086;28;20102;-11
2022/10/17 06:04:19;;;;;;;1.30;1.20;;;20.10;51.00;;;;;;5116010;28;20051;-11
2022/10/17 06:06:45;;;;;;;1.55;1.02;;;20.10;51.00;;;;;;5135523;28;20058;-11
2022/10/17 06:09:11;;;;;;;1.55;1.10;;;20.10;51.00;;;;;;5116418;28;20075;-11
2022/10/17 06:11:41;;;;;;;1.35;1.05;;;20.10;51.00;;;;;;5116605;28;20088;-11
2022/10/17 06:14:07;;;;;;;1.67;0.95;;;20.10;51.00;;;;;;5135243;28;20129;-11
2022/10/17 06:16:33;;;;;;;1.08;0.98;;;20.10;51.00;;;;;;5116444;28;20047;-12
2022/10/17 06:18:59;;;;;;;1.00;0.90;;;20.10;51.00;;;;;;5116039;28;20051;-12
2022/10/17 06:21:26;;;;;;;3.03;0.88;;;20.10;50.90;;;;;;5116132;28;21094;-12
2022/10/17 06:24:00;;;;;;;1.40;1.30;;;20.20;50.90;;;;;;5117136;28;20051;-12
2022/10/17 06:26:30;;;;;;;1.55;1.08;;;20.20;50.80;;;;;;5116977;28;20467;-9
2022/10/17 06:28:56;;;;;;;1.13;1.00;;;20.30;50.70;;;;;;5116168;28;20096;-9
2022/10/17 06:31:22;;;;;;;0.82;0.82;;;20.40;50.50;;;;;;5116440;28;20505;-9
2022/10/17 06:33:47;;;;;;;1.52;1.10;;;20.30;50.40;;;;;;5116928;28;20051;-9
2022/10/17 06:36:14;;;;;;;1.67;1.42;;;20.30;50.30;;;;;;5116773;28;20151;-9
2022/10/17 06:38:40;;;;;;;1.70;1.20;;;20.40;50.40;;;;;;5115064;28;20483;-9
2022/10/17 06:41:14;;;;;;;2.17;0.95;;;20.40;50.30;;;;;;5116650;28;20051;-11
2022/10/17 06:43:42;;;;;;;3.10;1.20;;;20.40;50.30;;;;;;5116179;28;20494;-9
2022/10/17 06:46:28;;;;;;;2.47;1.00;;;20.50;50.20;;;;;;5134682;28;20053;-11
2022/10/17 06:49:03;;;;;;;1.13;1.00;;;20.50;50.10;;;;;;5134516;28;20142;-10
2022/10/17 06:51:52;;;;;;;1.05;0.95;;;20.50;50.10;;;;;;5123309;28;20073;-10
2022/10/17 06:54:24;;;;;;;3.22;1.27;;;20.60;50.00;;;;;;5116430;28;20051;-10
2022/10/17 06:57:08;;;;;;;1.20;1.10;;;20.60;49.70;;;;;;5133103;27;20057;-10
2022/10/17 06:59:45;;;;;;;1.90;1.20;;;20.70;49.70;;;;;;5134780;28;20400;-10
2022/10/17 07:02:16;;;;;;;1.02;0.93;;;20.60;49.60;;;;;;5115787;28;20063;-10
2022/10/17 07:04:45;;;;;;;1.70;1.10;;;20.60;49.70;;;;;;5114656;28;20055;-10
2022/10/17 07:07:11;;;;;;;2.05;1.00;;;20.70;49.60;;;;;;5113921;28;20048;-10
2022/10/17 07:09:37;;;;;;;1.13;0.90;;;20.80;49.40;;;;;;5115528;28;20100;-10
2022/10/17 07:12:05;;;;;;;1.45;1.25;;;20.90;49.20;;;;;;5114898;28;20146;-10
2022/10/17 07:14:31;;;;;;;1.95;1.10;;;21.00;49.10;;;;;;5114573;28;20051;-10
2022/10/17 07:16:58;;;;;;;1.92;1.20;;;21.00;48.90;;;;;;5113587;28;20055;-11
2022/10/17 07:19:26;;;;;;;3.20;1.02;;;21.10;48.80;;;;;;5113909;28;20504;-10
2022/10/17 07:21:53;;;;;;;1.25;1.00;;;21.20;48.80;;;;;;5115504;28;20563;-10
2022/10/17 07:24:19;;;;;;;1.42;1.05;;;21.20;48.60;;;;;;5115541;28;20117;-10
2022/10/17 07:26:49;;;;;;;1.40;1.30;;;21.20;48.50;;;;;;5115668;28;20145;-11
2022/10/17 07:29:15;;;;;;;1.55;1.00;;;21.20;48.50;;;;;;5113562;28;20452;-11
2022/10/17 07:31:53;;;;;;;1.13;0.80;;;21.20;48.50;;;;;;5115251;28;20073;-10
2022/10/17 07:34:19;;;;;;;1.35;1.25;;;21.20;48.60;;;;;;5115356;28;20491;-10
2022/10/17 07:36:44;;;;;;;1.50;1.23;;;21.10;48.70;;;;;;5115578;28;20047;-10
2022/10/17 07:39:12;;;;;;;1.88;1.30;;;21.00;48.80;;;;;;5115140;28;20047;-10
2022/10/17 07:41:38;;;;;;;0.98;0.93;;;21.00;48.90;;;;;;5115185;28;20509;-10
2022/10/17 07:44:05;;;;;;;1.30;1.17;;;21.00;48.80;;;;;;5115461;28;20086;-11
2022/10/17 07:46:39;;;;;;;1.58;1.40;;;21.00;48.90;;;;;;5114901;28;20104;-10
2022/10/17 07:49:05;;;;;;;1.95;1.10;;;21.10;48.90;;;;;;5115083;28;20055;-10
2022/10/17 07:51:31;;;;;;;1.35;1.25;;;21.00;48.90;;;;;;5115018;28;20479;-10
2022/10/17 07:53:56;;;;;;;1.00;0.93;;;21.00;49.00;;;;;;5133115;28;20051;-10
2022/10/17 07:56:23;;;;;;;1.02;0.93;;;21.00;49.00;;;;;;5133348;28;20055;-10
2022/10/17 07:58:50;;;;;;;1.10;1.00;;;21.00;49.00;;;;;;5133404;28;20138;-10
2022/10/17 08:01:16;;;;;;;2.30;1.38;;;21.00;48.90;;;;;;5132290;28;20610;-11
2022/10/17 08:03:44;;;;;;;1.63;1.05;;;21.00;49.00;;;;;;5132160;28;20137;-10
2022/10/17 08:06:10;;;;;;;1.55;1.15;;;21.00;48.90;;;;;;5133151;28;20495;-10
2022/10/17 08:08:36;;;;;;;1.35;1.10;;;21.00;49.00;;;;;;5133055;27;20062;-10
2022/10/17 08:11:05;;;;;;;2.90;1.10;;;20.90;49.10;;;;;;5133292;28;20118;-10
2022/10/17 08:13:31;;;;;;;1.50;1.30;;;20.90;49.10;;;;;;5133643;28;20077;-10
2022/10/17 08:16:02;;;;;;;1.15;1.00;;;20.90;49.20;;;;;;5131991;28;20503;-11
2022/10/17 08:18:28;;;;;;;1.50;1.20;;;20.90;49.30;;;;;;5133492;28;20061;-10
2022/10/17 08:20:57;;;;;;;2.47;1.42;;;20.90;49.40;;;;;;5133364;28;20047;-10
2022/10/17 08:23:23;;;;;;;1.48;1.10;;;20.80;49.50;;;;;;5133635;28;20047;-11
2022/10/17 08:25:49;;;;;;;2.50;1.00;;;20.80;49.40;;;;;;5132994;28;20050;-10
2022/10/17 08:28:15;;;;;;;1.00;0.95;;;20.80;49.50;;;;;;5133277;28;20487;-10
2022/10/17 08:30:41;;;;;;;1.40;1.00;;;20.70;49.60;;;;;;5133200;28;20095;-10
2022/10/17 08:33:07;;;;;;;1.60;1.00;;;20.80;49.60;;;;;;5133078;28;20047;-10
2022/10/17 08:35:33;;;;;;;2.08;0.75;;;20.70;49.60;;;;;;5132902;28;20088;-10
2022/10/17 08:38:01;;;;;;;2.78;1.33;;;20.70;49.60;;;;;;5132770;28;20055;-10
2022/10/17 08:40:30;;;;;;;1.35;1.25;;;20.70;49.70;;;;;;5132621;28;20047;-10
2022/10/17 08:43:35;;;;;;;1.20;1.10;;;20.70;49.60;;;;;;5131043;28;20066;-11
2022/10/17 08:46:05;;;;;;;1.50;1.17;;;20.70;49.70;;;;;;5086742;28;20046;-10
2022/10/17 08:48:38;;;;;;;1.58;1.08;;;20.70;49.70;;;;;;5131014;28;20059;-11
2022/10/17 08:51:18;;;;;;;1.58;1.10;;;20.70;49.60;;;;;;5130369;28;20059;-11
2022/10/17 08:53:55;;;;;;;2.22;1.30;;;20.80;49.70;;;;;;5130773;28;20074;-11
2022/10/17 08:56:29;;;;;;;1.75;1.08;;;20.70;49.60;;;;;;5131572;28;20051;-12
2022/10/17 08:58:54;;;;;;;1.75;1.05;;;20.80;49.60;;;;;;5131721;28;20213;-11
2022/10/17 09:01:46;;;;;;;4.85;1.50;;;20.80;49.60;;;;;;5131908;28;20118;-11
2022/10/17 09:04:23;;;;;;;1.25;1.00;;;20.80;49.50;;;;;;5132491;28;20054;-10
2022/10/17 09:07:08;;;;;;;1.50;1.30;;;20.80;49.50;;;;;;5132895;28;20054;-10
2022/10/17 09:10:14;;;;;;;2.85;1.50;;;20.80;49.50;;;;;;5132300;28;20506;-11
2022/10/17 09:13:06;;;;;;;1.80;1.10;;;20.80;49.40;;;;;;5132498;28;20103;-10
2022/10/17 09:15:43;;;;;;;;;;;20.90;49.40;;;;;;5132787;28;20039;-10
2022/10/17 09:18:15;;;;;;;1.70;1.23;;;20.80;49.40;;;;;;5132400;28;19936;-10
2022/10/17 09:20:44;;;;;;;1.55;1.25;;;20.90;49.40;;;;;;5132488;27;20146;-10
2022/10/17 09:23:18;;;;;;;2.50;1.40;;;20.90;49.40;;;;;;5135790;28;20129;-10
2022/10/17 09:25:49;;;;;;;1.52;1.27;;;20.90;49.30;;;;;;5135970;28;20077;-11
2022/10/17 09:28:30;;;;;;;2.40;1.40;;;20.90;49.40;;;;;;5135899;28;20046;-11
2022/10/17 09:31:01;;;;;;;1.77;1.20;;;20.90;49.40;;;;;;5135921;28;20071;-11
2022/10/17 09:33:34;;;;;;;1.50;1.20;;;20.90;49.40;;;;;;5135789;28;20046;-11
2022/10/17 09:36:02;;;;;;;1.95;1.10;;;20.90;49.40;;;;;;5135867;28;20490;-11
2022/10/17 09:38:36;;;;;;;1.80;1.13;;;20.80;49.50;;;;;;5135970;28;20043;-11
2022/10/17 09:41:02;;;;;;;2.58;1.20;;;20.80;49.50;;;;;;5136267;28;20403;-11
2022/10/17 09:43:28;;;;;;;1.35;1.17;;;20.90;49.50;;;;;;5136034;28;20055;-10
2022/10/17 09:46:05;;;;;;;1.63;1.25;;;20.80;49.40;;;;;;5135789;28;20047;-10
2022/10/17 09:48:38;;;;;;;1.10;1.00;;;20.90;49.50;;;;;;5136303;28;20407;-10
2022/10/17 09:51:06;;;;;;;1.15;1.05;;;20.80;49.50;;;;;;5135860;28;20139;-10
2022/10/17 09:53:43;;;;;;;1.80;1.10;;;20.90;50.00;;;;;;5135848;28;20047;-10
2022/10/17 09:56:15;;;;;;;1.52;1.10;;;20.90;49.50;;;;;;5135579;28;20070;-10
2022/10/17 09:58:47;;;;;;;2.58;1.00;;;20.90;49.50;;;;;;5136046;28;20058;-10
2022/10/17 10:01:17;;;;;;;2.67;1.20;;;20.90;49.40;;;;;;5135798;28;20051;-11
2022/10/17 10:03:43;;;;;;;1.13;1.00;;;20.80;49.40;;;;;;5135774;28;20049;-11
2022/10/17 10:06:13;;;;;;;1.50;1.20;;;20.90;49.40;;;;;;5135298;28;20469;-11
2022/10/17 10:08:54;;;;;;;1.20;1.00;;;20.90;49.40;;;;;;5135624;28;20459;-11
2022/10/17 10:11:22;;;;;;;;;;;20.90;49.40;;;;;;5135692;28;20055;-11
2022/10/17 10:13:49;;;;;;;2.10;1.25;;;20.90;49.40;;;;;;5134898;28;19915;-11
2022/10/17 10:16:32;;;;;;;2.58;1.25;;;20.90;49.40;;;;;;5134607;28;20058;-11
2022/10/17 10:18:58;;;;;;;1.83;1.15;;;20.90;49.40;;;;;;5135239;28;20043;-11
2022/10/17 10:21:26;;;;;;;1.45;1.15;;;20.90;49.40;;;;;;5135282;28;20123;-11
2022/10/17 10:24:12;;;;;;;1.17;1.02;;;20.90;49.50;;;;;;5134774;28;20060;-11
2022/10/17 10:26:44;;;;;;;1.05;1.00;;;20.90;49.50;;;;;;5134813;28;20043;-11
2022/10/17 10:29:32;;;;;;;2.22;1.15;;;20.80;49.50;;;;;;5134587;28;20054;-11
2022/10/17 10:32:18;;;;;;;1.33;1.20;;;20.80;49.50;;;;;;5134740;27;20047;-11
2022/10/17 10:34:54;;;;;;;1.40;1.25;;;20.80;49.60;;;;;;5134804;28;20054;-11
2022/10/17 10:37:32;;;;;;;1.48;1.23;;;20.80;49.60;;;;;;5134706;28;20078;-11
2022/10/17 10:40:13;;;;;;;1.80;1.23;;;20.80;49.60;;;;;;5134734;28;20451;-11
2022/10/17 10:42:40;;;;;;;1.20;1.10;;;20.80;49.60;;;;;;5134771;28;20051;-11
2022/10/17 10:45:27;;;;;;;1.17;1.08;;;20.90;49.60;;;;;;5134373;28;20051;-11
2022/10/17 10:48:15;;;;;;;1.00;0.95;;;20.80;49.50;;;;;;5134555;28;20093;-11
2022/10/17 10:50:45;;;;;;;1.85;1.30;;;20.90;49.60;;;;;;5133694;28;20058;-11
2022/10/17 10:53:27;;;;;;;1.50;1.20;;;20.90;49.50;;;;;;5134613;28;20050;-11
2022/10/17 10:55:55;;;;;;;1.25;1.00;;;20.90;49.50;;;;;;5134938;28;20072;-11
2022/10/17 10:58:48;;;;;;;1.35;1.20;;;20.90;49.50;;;;;;5134485;28;20054;-11
2022/10/17 11:01:37;;;;;;;1.23;0.88;;;20.80;49.50;;;;;;5134245;28;20054;-11
2022/10/17 11:04:22;;;;;;;1.33;1.08;;;20.80;49.50;;;;;;5134203;28;20403;-11
2022/10/17 11:06:54;;;;;;;2.00;1.45;;;20.80;49.50;;;;;;5134253;28;20047;-11
2022/10/17 11:09:59;;;;;;;1.35;1.20;;;20.80;49.60;;;;;;5134165;28;20129;-11
2022/10/17 11:12:38;;;;;;;1.20;1.10;;;20.80;49.70;;;;;;5134434;28;20426;-11
2022/10/17 11:15:42;;;;;;;1.67;1.30;;;20.70;49.70;;;;;;5134318;28;20047;-11
2022/10/17 11:18:41;;;;;;;1.00;0.95;;;20.80;49.80;;;;;;5122842;28;20061;-10
2022/10/17 11:21:22;;;;;;;0.90;0.90;;;20.80;49.90;;;;;;5133848;28;20070;-11
2022/10/17 11:23:58;;;;;;;1.60;1.30;;;20.80;49.90;;;;;;5134182;28;20058;-11
2022/10/17 11:26:31;;;;;;;2.22;1.30;;;20.80;49.90;;;;;;5134048;28;20135;-11
2022/10/17 11:29:00;;;;;;;1.25;1.05;;;20.80;50.00;;;;;;5133964;28;20458;-11
2022/10/17 11:31:33;;;;;;;1.38;1.20;;;20.80;50.00;;;;;;5134529;28;20058;-11
2022/10/17 11:34:08;;;;;;;1.48;1.17;;;20.80;49.90;;;;;;5134015;28;20047;-11
2022/10/17 11:36:39;;;;;;;1.73;1.20;;;20.80;50.00;;;;;;5133836;28;20046;-11
2022/10/17 11:39:19;;;;;;;2.20;1.38;;;20.70;50.00;;;;;;5134133;28;20047;-11
2022/10/17 11:42:08;;;;;;;1.77;1.10;;;20.70;50.00;;;;;;5134067;28;20139;-11
2022/10/17 11:44:36;;;;;;;1.65;1.13;;;20.80;50.00;;;;;;5132800;27;20047;-11
2022/10/17 11:47:27;;;;;;;1.30;1.17;;;20.80;50.00;;;;;;5133617;28;20499;-11
2022/10/17 11:50:05;;;;;;;1.77;1.43;;;20.80;50.00;;;;;;5133321;28;20090;-11
2022/10/17 11:52:40;;;;;;;1.95;1.10;;;20.80;49.90;;;;;;5134166;28;20292;-11
2022/10/17 11:55:16;;;;;;;1.55;1.25;;;20.80;49.90;;;;;;5133949;28;20377;-11
2022/10/17 11:58:16;;;;;;;1.52;1.13;;;20.80;49.90;;;;;;5133338;28;20479;-11
2022/10/17 12:01:03;;;;;;;2.10;1.02;;;20.70;49.90;;;;;;5133703;28;20043;-11
2022/10/17 12:03:37;;;;;;;1.27;1.17;;;20.70;50.00;;;;;;5133515;28;20078;-11
2022/10/17 12:06:38;;;;;;;2.22;1.13;;;20.60;50.10;;;;;;5133348;28;20494;-11
2022/10/17 12:09:17;;;;;;;1.50;1.40;;;20.70;50.20;;;;;;5133157;28;20046;-11
2022/10/17 12:11:58;;;;;;;1.15;1.05;;;20.60;50.20;;;;;;5133547;28;20471;-11
2022/10/17 12:15:18;;;;;;;1.33;1.23;;;20.60;50.20;;;;;;5133034;28;20550;-11
2022/10/17 12:17:53;;;;;;;1.35;1.20;;;20.60;50.20;;;;;;5049841;28;20080;-11
2022/10/17 12:20:19;;;;;;;1.35;0.93;;;20.60;50.20;;;;;;5131869;28;20047;-11
2022/10/17 12:22:50;;;;;;;1.60;1.00;;;20.70;50.20;;;;;;5132908;28;20043;-11
2022/10/17 12:25:28;;;;;;;1.08;0.95;;;20.70;50.20;;;;;;5133120;28;20120;-11
2022/10/17 12:28:12;;;;;;;1.17;0.93;;;20.70;50.30;;;;;;5133522;28;20047;-11
2022/10/17 12:30:50;;;;;;;1.50;1.40;;;20.70;50.30;;;;;;5132898;28;20181;-11
2022/10/17 12:33:22;;;;;;;2.13;1.13;;;20.70;50.40;;;;;;5133146;28;20047;-11
2022/10/17 12:35:50;;;;;;;1.67;1.38;;;20.70;50.40;;;;;;5133276;28;20043;-11
2022/10/17 12:38:16;;;;;;;1.40;1.30;;;20.70;50.50;;;;;;5133277;28;20137;-11
2022/10/17 12:40:42;;;;;;;2.90;1.30;;;20.70;50.50;;;;;;5132806;28;20077;-11
2022/10/17 12:43:34;;;;;;;1.58;1.10;;;20.70;50.60;;;;;;5133046;28;20051;-11
2022/10/17 12:46:01;;;;;;;2.05;1.50;;;20.70;50.60;;;;;;5093594;28;20074;-11
2022/10/17 12:48:33;;;;;;;2.25;1.38;;;20.70;50.70;;;;;;5133107;28;20485;-11
2022/10/17 12:51:01;;;;;;;1.85;1.50;;;20.70;50.70;;;;;;5133192;28;20059;-11
2022/10/17 12:53:39;;;;;;;1.23;1.10;;;20.70;50.80;;;;;;5132691;28;20051;-11
2022/10/17 12:56:05;;;;;;;2.92;1.42;;;20.70;50.80;;;;;;5134726;27;20043;-11
2022/10/17 12:58:32;;;;;;;1.77;1.38;;;20.70;50.80;;;;;;5136360;28;20479;-11
2022/10/17 13:00:58;;;;;;;2.70;1.30;;;20.70;50.90;;;;;;5136299;28;20051;-11
2022/10/17 13:03:29;;;;;;;2.45;1.50;;;20.70;50.90;;;;;;5136537;28;20054;-11
2022/10/17 13:05:59;;;;;;;1.30;1.00;;;20.70;51.10;;;;;;5136688;28;20483;-11
2022/10/17 13:08:32;;;;;;;2.88;1.42;;;20.70;51.10;;;;;;5136499;28;20047;-11
2022/10/17 13:10:58;;;;;;;1.67;1.38;;;20.70;51.20;;;;;;5136420;28;20035;-11
2022/10/17 13:13:47;;;;;;;2.67;1.50;;;20.70;51.30;;;;;;5135959;28;20078;-11
2022/10/17 13:16:50;;;;;;;2.15;1.52;;;20.70;51.50;;;;;;5134300;28;20047;-11
2022/10/17 13:19:19;;;;;;;3.88;1.70;;;20.70;51.70;;;;;;5130691;28;20130;-11